Time;durP1;ratioP1;P1;durP2;ratioP2;P2;SDS_P1;SDS_P2;PMS_P1;PMS_P2;Temp;Humidity;BMP_temperature;BMP_pressure;BME280_temperature;BME280_humidity;BME280_pressure;Samples;Min_cycle;Max_cycle;Signal;HPM_P1;HPM_P2
2022/03/10 00:01:55;;;;;;;;;;;15.80;36.70;;;;;;5005386;28;42908;-76
2022/03/10 00:04:22;;;;;;;;;;;15.80;36.70;;;;;;5005864;28;42940;-77
2022/03/10 00:06:47;;;;;;;;;;;15.80;36.80;;;;;;5005470;28;43289;-76
2022/03/10 00:09:13;;;;;;;;;;;15.80;36.70;;;;;;5004724;28;43011;-77
2022/03/10 00:11:40;;;;;;;;;;;15.80;36.80;;;;;;5004556;28;43435;-76
2022/03/10 00:14:05;;;;;;;;;;;15.80;36.80;;;;;;5005517;28;43079;-76
2022/03/10 00:16:31;;;;;;;;;;;15.80;36.90;;;;;;5005547;28;43609;-76
2022/03/10 00:18:56;;;;;;;;;;;15.80;36.90;;;;;;5005241;28;42901;-77
2022/03/10 00:21:22;;;;;;;;;;;15.80;37.00;;;;;;5005027;28;42919;-77
2022/03/10 00:23:48;;;;;;;;;;;15.80;36.40;;;;;;5005278;28;42938;-77
2022/03/10 00:26:13;;;;;;;;;;;15.80;37.00;;;;;;5005284;28;43431;-77
2022/03/10 00:28:39;;;;;;;;;;;15.80;37.10;;;;;;5005538;28;43020;-77
2022/03/10 00:31:04;;;;;;;;;;;15.80;36.60;;;;;;5005369;28;43520;-76
2022/03/10 00:33:30;;;;;;;;;;;15.80;36.60;;;;;;5005167;28;42981;-76
2022/03/10 00:35:55;;;;;;;;;;;15.80;36.60;;;;;;5004363;28;43405;-78
2022/03/10 00:38:21;;;;;;;;;;;15.80;36.60;;;;;;5004817;28;43015;-78
2022/03/10 00:40:46;;;;;;;;;;;15.80;36.70;;;;;;5003039;28;42961;-76
2022/03/10 00:43:12;;;;;;;;;;;15.80;37.30;;;;;;5005125;28;42957;-77
2022/03/10 00:45:38;;;;;;;;;;;15.80;37.20;;;;;;5004925;28;42952;-77
2022/03/10 00:48:04;;;;;;;;;;;15.30;37.00;;;;;;5005346;28;43040;-78
2022/03/10 00:50:29;;;;;;;;;;;15.80;36.80;;;;;;5005513;28;42885;-76
2022/03/10 00:52:55;;;;;;;;;;;15.80;36.80;;;;;;5004941;28;42929;-79
2022/03/10 00:55:21;;;;;;;;;;;15.80;37.40;;;;;;5004590;28;44863;-78
2022/03/10 00:57:47;;;;;;;;;;;15.80;37.40;;;;;;5007743;28;42772;-79
2022/03/10 01:00:13;;;;;;;;;;;15.80;37.40;;;;;;5004685;28;42992;-77
2022/03/10 01:02:39;;;;;;;;;;;15.80;37.50;;;;;;5005001;28;42699;-77
2022/03/10 01:05:05;;;;;;;;;;;15.80;37.50;;;;;;5004724;28;43335;-77
2022/03/10 01:07:31;;;;;;;;;;;15.80;37.50;;;;;;5004734;28;42805;-76
2022/03/10 01:09:56;;;;;;;;;;;15.80;37.50;;;;;;5009313;28;43104;-77
2022/03/10 01:12:22;;;;;;;;;;;15.80;37.70;;;;;;5024611;28;43706;-75
2022/03/10 01:14:47;;;;;;;;;;;15.80;37.00;;;;;;5024419;28;42827;-76
2022/03/10 01:17:13;;;;;;;;;;;15.80;37.60;;;;;;5024568;28;42975;-81
2022/03/10 01:19:39;;;;;;;;;;;15.80;37.10;;;;;;5024410;28;43522;-76
2022/03/10 01:22:06;;;;;;;;;;;15.80;37.20;;;;;;5024649;28;42924;-77
2022/03/10 01:24:32;;;;;;;;;;;15.80;37.20;;;;;;5024098;28;42966;-76
2022/03/10 01:26:57;;;;;;;;;;;15.80;37.80;;;;;;5024253;28;42879;-76
2022/03/10 01:29:23;;;;;;;;;;;15.80;37.80;;;;;;5024505;28;42954;-77
2022/03/10 01:31:48;;;;;;;;;;;15.80;37.90;;;;;;5024545;28;42835;-81
2022/03/10 01:34:14;;;;;;;;;;;15.80;37.30;;;;;;5023407;28;43435;-81
2022/03/10 01:36:40;;;;;;;;;;;15.80;38.00;;;;;;5023272;28;43377;-76
2022/03/10 01:39:06;;;;;;;;;;;15.80;37.80;;;;;;5023543;28;43388;-81
2022/03/10 01:41:32;;;;;;;;;;;18.90;39.40;;;;;;5023790;28;42893;-81
2022/03/10 01:43:59;;;;;;;;;;;15.80;37.90;;;;;;5023571;28;43511;-76
2022/03/10 01:46:25;;;;;;;;;;;15.80;37.90;;;;;;5024325;28;43332;-81
2022/03/10 01:48:50;;;;;;;;;;;15.80;37.40;;;;;;5023796;28;43460;-78
2022/03/10 01:51:16;;;;;;;;;;;15.80;38.10;;;;;;5023536;28;43128;-75
2022/03/10 01:53:42;;;;;;;;;;;15.80;37.90;;;;;;5024208;28;42992;-81
2022/03/10 01:56:09;;;;;;;;;;;15.80;37.50;;;;;;5024132;28;42885;-79
2022/03/10 01:58:34;;;;;;;;;;;15.80;37.90;;;;;;5023569;28;43367;-78
2022/03/10 02:01:00;;;;;;;;;;;15.80;38.00;;;;;;5023664;28;43307;-76
2022/03/10 02:03:25;;;;;;;;;;;15.80;38.10;;;;;;5023398;28;43882;-78
2022/03/10 02:05:52;;;;;;;;;;;15.80;37.60;;;;;;5025071;28;43156;-77
2022/03/10 02:11:02;;;;;;;;;;;15.80;38.10;;;;;;5027410;28;42940;-81
2022/03/10 02:13:27;;;;;;;;;;;15.80;38.20;;;;;;5027264;28;42885;-77
2022/03/10 02:18:37;;;;;;;;;;;15.80;38.20;;;;;;5027009;28;43109;-77
2022/03/10 02:21:03;;;;;;;;;;;15.80;38.20;;;;;;5027104;28;42829;-78
2022/03/10 02:23:28;;;;;;;;;;;15.80;38.30;;;;;;5026510;28;43006;-77
2022/03/10 02:25:58;;;;;;;;;;;15.80;38.30;;;;;;5026163;28;42999;-77
2022/03/10 02:28:24;;;;;;;;;;;15.80;38.20;;;;;;5026470;28;44303;-76
2022/03/10 02:30:50;;;;;;;;;;;15.80;38.20;;;;;;5026819;28;43082;-80
2022/03/10 02:33:15;;;;;;;;;;;15.80;38.20;;;;;;5027013;28;43491;-77
2022/03/10 02:35:41;;;;;;;;;;;15.80;38.40;;;;;;5026603;28;42968;-77
2022/03/10 02:38:06;;;;;;;;;;;15.80;38.30;;;;;;5026421;28;43042;-77
2022/03/10 02:40:32;;;;;;;;;;;15.80;37.90;;;;;;5026700;28;42849;-77
2022/03/10 02:42:58;;;;;;;;;;;15.80;38.40;;;;;;5026451;28;44059;-76
2022/03/10 02:45:23;;;;;;;;;;;15.80;38.40;;;;;;5026438;28;43287;-78
2022/03/10 02:47:49;;;;;;;;;;;15.80;38.40;;;;;;5026594;28;43016;-76
2022/03/10 02:50:15;;;;;;;;;;;15.80;38.40;;;;;;5026878;28;42817;-76
2022/03/10 02:52:42;;;;;;;;;;;15.80;38.50;;;;;;5026250;28;43445;-76
2022/03/10 02:55:08;;;;;;;;;;;15.80;38.40;;;;;;5005424;28;43058;-79
2022/03/10 02:57:34;;;;;;;;;;;15.80;38.50;;;;;;5005744;28;43166;-76
2022/03/10 02:59:59;;;;;;;;;;;15.80;38.40;;;;;;5006763;28;43052;-78
2022/03/10 03:02:25;;;;;;;;;;;15.80;38.50;;;;;;5006493;28;43080;-76
2022/03/10 03:04:51;;;;;;;;;;;15.80;38.60;;;;;;5006530;28;42968;-76
2022/03/10 03:07:17;;;;;;;;;;;15.80;38.50;;;;;;5006673;28;42987;-76
2022/03/10 03:09:43;;;;;;;;;;;15.80;38.50;;;;;;5006815;28;42854;-77
2022/03/10 03:12:09;;;;;;;;;;;15.80;38.70;;;;;;5006224;28;42945;-77
2022/03/10 03:14:34;;;;;;;;;;;15.80;38.70;;;;;;5006740;28;42986;-77
2022/03/10 03:17:00;;;;;;;;;;;15.80;38.00;;;;;;5006590;28;42971;-76
2022/03/10 03:19:25;;;;;;;;;;;15.80;38.70;;;;;;5006550;28;43042;-78
2022/03/10 03:21:51;;;;;;;;;;;15.80;38.60;;;;;;5006427;28;43012;-76
2022/03/10 03:24:16;;;;;;;;;;;15.80;38.70;;;;;;5006589;28;43042;-76
2022/03/10 03:26:42;;;;;;;;;;;15.80;38.70;;;;;;5006056;28;43399;-77
2022/03/10 03:29:07;;;;;;;;;;;15.80;38.70;;;;;;5006496;28;42829;-78
2022/03/10 03:31:33;;;;;;;;;;;15.80;38.70;;;;;;5006086;28;42841;-77
2022/03/10 03:33:58;;;;;;;;;;;15.80;38.70;;;;;;5008662;28;42785;-77
2022/03/10 03:36:24;;;;;;;;;;;15.70;38.10;;;;;;5008214;28;42878;-77
2022/03/10 03:38:50;;;;;;;;;;;15.80;38.70;;;;;;5006455;28;42949;-77
2022/03/10 03:41:15;;;;;;;;;;;15.80;38.20;;;;;;5005637;28;43046;-76
2022/03/10 03:43:41;;;;;;;;;;;15.80;38.90;;;;;;5006232;28;42915;-77
2022/03/10 03:46:07;;;;;;;;;;;15.80;38.80;;;;;;5004601;28;44392;-76
2022/03/10 03:48:33;;;;;;;;;;;15.80;38.80;;;;;;5024332;28;42911;-76
2022/03/10 03:50:58;;;;;;;;;;;15.80;38.90;;;;;;5025148;28;43046;-76
2022/03/10 03:53:24;;;;;;;;;;;15.80;38.90;;;;;;5025414;28;42895;-76
2022/03/10 03:55:50;;;;;;;;;;;15.80;38.80;;;;;;5024925;28;43611;-78
2022/03/10 03:58:16;;;;;;;;;;;15.80;38.90;;;;;;5024851;28;43020;-76
2022/03/10 04:00:41;;;;;;;;;;;15.80;38.90;;;;;;5024444;28;43414;-77
2022/03/10 04:03:08;;;;;;;;;;;15.70;38.30;;;;;;5024916;28;42766;-76
2022/03/10 04:05:34;;;;;;;;;;;15.80;38.80;;;;;;5025182;28;42882;-76
2022/03/10 04:07:59;;;;;;;;;;;15.80;38.90;;;;;;5025502;28;42947;-80
2022/03/10 04:10:25;;;;;;;;;;;15.70;38.30;;;;;;5025035;28;44026;-76
2022/03/10 04:12:50;;;;;;;;;;;15.70;38.90;;;;;;5025377;28;42853;-76
2022/03/10 04:15:16;;;;;;;;;;;15.80;39.00;;;;;;5025521;28;43253;-77
2022/03/10 04:17:42;;;;;;;;;;;15.80;39.00;;;;;;5025244;28;42916;-76
2022/03/10 04:20:13;;;;;;;;;;;15.80;39.00;;;;;;5024409;28;43009;-76
2022/03/10 04:22:41;;;;;;;;;;;15.80;39.00;;;;;;5024528;28;43004;-79
2022/03/10 04:25:08;;;;;;;;;;;15.80;39.00;;;;;;5024960;28;44201;-76
2022/03/10 04:27:34;;;;;;;;;;;15.70;39.00;;;;;;5024418;28;42988;-76
2022/03/10 04:29:59;;;;;;;;;;;15.70;38.40;;;;;;5024783;28;43921;-77
2022/03/10 04:32:25;;;;;;;;;;;15.80;38.50;;;;;;5024965;28;42853;-77
2022/03/10 04:34:50;;;;;;;;;;;15.80;39.30;;;;;;5025351;28;43940;-76
2022/03/10 04:37:16;;;;;;;;;;;15.80;39.10;;;;;;5025022;28;43123;-77
2022/03/10 04:39:42;;;;;;;;;;;15.80;39.10;;;;;;5024217;28;43379;-76
2022/03/10 04:42:07;;;;;;;;;;;15.80;39.20;;;;;;5025184;28;42956;-77
2022/03/10 04:44:33;;;;;;;;;;;15.70;39.20;;;;;;5025001;28;44012;-76
2022/03/10 04:46:58;;;;;;;;;;;15.70;39.20;;;;;;5025093;28;43016;-76
2022/03/10 04:49:24;;;;;;;;;;;15.80;39.10;;;;;;5022960;28;43885;-80
2022/03/10 04:51:49;;;;;;;;;;;15.70;39.20;;;;;;5021277;28;42878;-76
2022/03/10 04:54:15;;;;;;;;;;;15.70;39.10;;;;;;5023788;28;43571;-76
2022/03/10 04:56:41;;;;;;;;;;;15.70;39.10;;;;;;5025094;28;42970;-76
2022/03/10 04:59:06;;;;;;;;;;;15.80;38.70;;;;;;5024467;28;43727;-77
2022/03/10 05:01:32;;;;;;;;;;;15.70;39.20;;;;;;5019360;28;43010;-76
2022/03/10 05:03:57;;;;;;;;;;;15.70;39.20;;;;;;5004377;28;43470;-82
2022/03/10 05:06:23;;;;;;;;;;;15.70;39.20;;;;;;5004697;28;43019;-76
2022/03/10 05:08:48;;;;;;;;;;;15.70;39.20;;;;;;5005087;28;43213;-76
2022/03/10 05:11:14;;;;;;;;;;;15.80;39.30;;;;;;5005012;28;42878;-82
2022/03/10 05:13:39;;;;;;;;;;;15.70;39.30;;;;;;5005125;28;42774;-76
2022/03/10 05:16:05;;;;;;;;;;;15.70;38.70;;;;;;5004666;28;42979;-80
2022/03/10 05:18:30;;;;;;;;;;;15.70;39.20;;;;;;5004709;28;43009;-76
2022/03/10 05:20:56;;;;;;;;;;;15.70;39.30;;;;;;5004236;28;42945;-75
2022/03/10 05:23:22;;;;;;;;;;;15.70;38.80;;;;;;5008514;28;43563;-76
2022/03/10 05:25:48;;;;;;;;;;;15.80;39.40;;;;;;5024307;28;42904;-75
2022/03/10 05:28:14;;;;;;;;;;;15.80;39.30;;;;;;5023754;28;42813;-75
2022/03/10 05:30:43;;;;;;;;;;;15.70;39.30;;;;;;5023334;28;42926;-76
2022/03/10 05:33:09;;;;;;;;;;;15.70;39.30;;;;;;5024605;28;43883;-77
2022/03/10 05:35:34;;;;;;;;;;;15.70;39.40;;;;;;5023899;28;42920;-76
2022/03/10 05:38:00;;;;;;;;;;;15.70;39.40;;;;;;5024459;28;42994;-76
2022/03/10 05:40:26;;;;;;;;;;;15.70;39.60;;;;;;5024616;28;42853;-77
2022/03/10 05:42:52;;;;;;;;;;;15.70;39.50;;;;;;5027438;28;43600;-77
2022/03/10 05:45:20;;;;;;;;;;;15.70;39.60;;;;;;5027824;28;43251;-76
2022/03/10 05:47:46;;;;;;;;;;;15.70;39.60;;;;;;5028036;28;42884;-76
2022/03/10 05:50:12;;;;;;;;;;;15.70;39.60;;;;;;5027507;28;43211;-75
2022/03/10 05:52:38;;;;;;;;;;;15.70;39.80;;;;;;5027721;28;43581;-76
2022/03/10 05:55:04;;;;;;;;;;;15.70;39.90;;;;;;5024887;28;43068;-75
2022/03/10 05:57:30;;;;;;;;;;;15.70;39.70;;;;;;5008240;28;42944;-79
2022/03/10 05:59:56;;;;;;;;;;;15.70;39.30;;;;;;5015522;28;43077;-78
2022/03/10 06:02:21;;;;;;;;;;;15.80;40.00;;;;;;5019013;28;43602;-77
2022/03/10 06:04:47;;;;;;;;;;;15.70;40.00;;;;;;5023581;28;43117;-79
2022/03/10 06:07:12;;;;;;;;;;;15.80;39.90;;;;;;5018274;28;43555;-82
2022/03/10 06:09:38;;;;;;;;;;;15.70;39.70;;;;;;5018049;28;43132;-78
2022/03/10 06:12:03;;;;;;;;;;;15.70;39.70;;;;;;5020193;28;42778;-78
2022/03/10 06:14:29;;;;;;;;;;;15.70;39.70;;;;;;5023422;28;42978;-79
2022/03/10 06:16:54;;;;;;;;;;;15.80;39.80;;;;;;5016463;28;42910;-77
2022/03/10 06:19:20;;;;;;;;;;;15.80;40.10;;;;;;5026193;28;42869;-76
2022/03/10 06:21:46;;;;;;;;;;;15.80;39.80;;;;;;5026615;28;43003;-78
2022/03/10 06:24:14;;;;;;;;;;;15.80;39.70;;;;;;5027023;28;42931;-80
2022/03/10 06:26:40;;;;;;;;;;;15.80;40.20;;;;;;5026117;28;42736;-76
2022/03/10 06:29:06;;;;;;;;;;;15.80;42.10;;;;;;5026896;28;42943;-75
2022/03/10 06:31:32;;;;;;;;;;;15.80;42.30;;;;;;5025204;28;42998;-76
2022/03/10 06:33:58;;;;;;;;;;;15.80;42.20;;;;;;5019457;28;43041;-76
2022/03/10 06:36:24;;;;;;;;;;;15.00;36.30;;;;;;5016965;28;43528;-76
2022/03/10 06:38:49;;;;;;;;;;;14.30;35.10;;;;;;5015933;28;42848;-76
2022/03/10 06:41:15;;;;;;;;;;;14.10;34.90;;;;;;5020896;28;44397;-79
2022/03/10 06:43:40;;;;;;;;;;;13.90;34.30;;;;;;5016818;28;42986;-75
2022/03/10 06:46:06;;;;;;;;;;;13.80;34.00;;;;;;5014694;28;43949;-77
2022/03/10 06:48:31;;;;;;;;;;;13.90;33.80;;;;;;5019423;28;42987;-76
2022/03/10 06:50:57;;;;;;;;;;;14.20;34.20;;;;;;5021119;28;43536;-77
2022/03/10 06:53:22;;;;;;;;;;;14.20;33.60;;;;;;5015996;28;42927;-77
2022/03/10 06:55:48;;;;;;;;;;;14.10;33.40;;;;;;5015320;28;43630;-76
2022/03/10 06:58:13;;;;;;;;;;;14.00;33.40;;;;;;5017152;28;43143;-75
2022/03/10 07:00:39;;;;;;;;;;;14.00;33.30;;;;;;5017160;28;43202;-76
2022/03/10 07:03:04;;;;;;;;;;;14.00;33.20;;;;;;5018046;28;43450;-77
2022/03/10 07:05:30;;;;;;;;;;;14.00;33.20;;;;;;5014629;28;43413;-78
2022/03/10 07:07:55;;;;;;;;;;;13.90;33.50;;;;;;5014799;28;43033;-76
2022/03/10 07:10:21;;;;;;;;;;;13.90;33.20;;;;;;5017020;28;42996;-79
2022/03/10 07:12:47;;;;;;;;;;;14.00;33.30;;;;;;5015724;28;43007;-79
2022/03/10 07:15:12;;;;;;;;;;;14.20;33.50;;;;;;5015248;28;42992;-76
2022/03/10 07:17:39;;;;;;;;;;;14.00;33.40;;;;;;5017162;28;43276;-76
2022/03/10 07:20:04;;;;;;;;;;;13.90;33.60;;;;;;5004951;28;42979;-76
2022/03/10 07:22:30;;;;;;;;;;;13.90;34.00;;;;;;5006527;28;42920;-77
2022/03/10 07:24:55;;;;;;;;;;;13.80;34.30;;;;;;5017673;28;43912;-82
2022/03/10 07:27:21;;;;;;;;;;;13.80;34.30;;;;;;5025831;28;42985;-76
2022/03/10 07:29:47;;;;;;;;;;;13.80;33.70;;;;;;5025141;28;43543;-76
2022/03/10 07:32:12;;;;;;;;;;;13.80;34.50;;;;;;5025229;28;42944;-76
2022/03/10 07:34:38;;;;;;;;;;;13.70;34.00;;;;;;5030200;28;43067;-76
2022/03/10 07:37:04;;;;;;;;;;;13.80;33.70;;;;;;5018070;28;43429;-78
2022/03/10 07:39:29;;;;;;;;;;;13.80;33.60;;;;;;5016953;28;43224;-75
2022/03/10 07:41:55;;;;;;;;;;;13.90;34.40;;;;;;5016239;28;43160;-76
2022/03/10 07:44:20;;;;;;;;;;;13.90;34.60;;;;;;5014212;28;42826;-75
2022/03/10 07:46:46;;;;;;;;;;;14.00;34.80;;;;;;5014760;28;43089;-76
2022/03/10 07:49:11;;;;;;;;;;;14.00;34.70;;;;;;5015353;28;43784;-75
2022/03/10 07:51:38;;;;;;;;;;;14.00;34.20;;;;;;5016908;28;43031;-75
2022/03/10 07:54:03;;;;;;;;;;;14.40;34.40;;;;;;5016416;28;42990;-76
2022/03/10 07:56:29;;;;;;;;;;;14.60;33.80;;;;;;5006034;28;42995;-78
2022/03/10 07:58:54;;;;;;;;;;;14.70;34.10;;;;;;5006165;28;43648;-75
2022/03/10 08:01:22;;;;;;;;;;;14.70;34.50;;;;;;5018777;28;61236;-77
2022/03/10 08:03:47;;;;;;;;;;;15.20;34.60;;;;;;5004796;28;43532;-75
2022/03/10 08:06:13;;;;;;;;;;;14.70;33.60;;;;;;5014454;28;42952;-77
2022/03/10 08:08:38;;;;;;;;;;;14.60;33.40;;;;;;5014870;28;42983;-76
2022/03/10 08:11:08;;;;;;;;;;;14.70;33.50;;;;;;5015861;28;42888;-75
2022/03/10 08:13:34;;;;;;;;;;;14.70;33.10;;;;;;5012709;28;43008;-76
2022/03/10 08:15:59;;;;;;;;;;;14.70;33.10;;;;;;5014960;28;43725;-76
2022/03/10 08:18:25;;;;;;;;;;;14.70;33.20;;;;;;5015505;28;42884;-76
2022/03/10 08:20:51;;;;;;;;;;;14.80;33.00;;;;;;5012357;28;43077;-75
2022/03/10 08:23:18;;;;;;;;;;;14.80;33.10;;;;;;5014498;28;43178;-79
2022/03/10 08:25:44;;;;;;;;;;;14.90;33.10;;;;;;5023885;28;43087;-78
2022/03/10 08:28:10;;;;;;;;;;;14.90;32.60;;;;;;5023755;28;43470;-79
2022/03/10 08:30:35;;;;;;;;;;;15.00;33.10;;;;;;5025350;28;42920;-77
2022/03/10 08:33:01;;;;;;;;;;;15.00;32.80;;;;;;5025256;28;42986;-79
2022/03/10 08:35:27;;;;;;;;;;;15.00;32.70;;;;;;5025205;28;42998;-78
2022/03/10 08:37:52;;;;;;;;;;;14.90;32.20;;;;;;5024642;28;43052;-78
2022/03/10 08:40:19;;;;;;;;;;;14.90;32.80;;;;;;5025153;28;42928;-79
2022/03/10 08:42:45;;;;;;;;;;;15.00;33.20;;;;;;5017224;28;42806;-78
2022/03/10 08:45:11;;;;;;;;;;;15.10;33.40;;;;;;5013512;28;42941;-76
2022/03/10 08:47:37;;;;;;;;;;;15.20;33.60;;;;;;5016311;28;42989;-76
2022/03/10 08:50:03;;;;;;;;;;;15.30;34.10;;;;;;5016758;28;42920;-78
2022/03/10 08:52:28;;;;;;;;;;;15.40;34.10;;;;;;5007920;28;43714;-78
2022/03/10 08:54:54;;;;;;;;;;;15.30;33.90;;;;;;5005831;28;42866;-78
2022/03/10 08:57:20;;;;;;;;;;;15.40;34.50;;;;;;5005541;28;43115;-78
2022/03/10 08:59:45;;;;;;;;;;;15.40;34.10;;;;;;5005076;28;43003;-78
2022/03/10 09:02:12;;;;;;;;;;;15.40;34.80;;;;;;5005729;28;43653;-78
2022/03/10 09:04:38;;;;;;;;;;;15.40;34.90;;;;;;5005702;28;42924;-78
2022/03/10 09:07:03;;;;;;;;;;;15.40;34.50;;;;;;5016838;28;42984;-78
2022/03/10 09:09:29;;;;;;;;;;;15.40;35.00;;;;;;5024533;28;42956;-79
2022/03/10 09:11:55;;;;;;;;;;;15.50;35.10;;;;;;5023109;28;43439;-79
2022/03/10 09:14:20;;;;;;;;;;;15.50;35.30;;;;;;5019961;28;42829;-78
2022/03/10 09:16:46;;;;;;;;;;;15.50;34.60;;;;;;5025916;28;44593;-83
2022/03/10 09:19:11;;;;;;;;;;;15.60;35.20;;;;;;5019959;28;44067;-80
2022/03/10 09:21:37;;;;;;;;;;;15.50;35.20;;;;;;5018235;28;43628;-79
2022/03/10 09:24:02;;;;;;;;;;;15.50;35.30;;;;;;5018998;28;42978;-78
2022/03/10 09:26:28;;;;;;;;;;;15.50;35.40;;;;;;5016613;28;43502;-79
2022/03/10 09:28:54;;;;;;;;;;;15.50;34.90;;;;;;5018394;28;43032;-77
2022/03/10 09:31:20;;;;;;;;;;;15.50;35.00;;;;;;5016020;28;42992;-77
2022/03/10 09:33:46;;;;;;;;;;;15.60;35.50;;;;;;5017133;28;42960;-78
2022/03/10 09:36:13;;;;;;;;;;;15.60;35.50;;;;;;5017437;28;42994;-79
2022/03/10 09:38:39;;;;;;;;;;;15.60;35.60;;;;;;5016379;28;42912;-77
2022/03/10 09:41:05;;;;;;;;;;;15.50;35.70;;;;;;5016634;28;44010;-79
2022/03/10 09:43:31;;;;;;;;;;;15.60;35.50;;;;;;5023219;28;42986;-78
2022/03/10 09:45:57;;;;;;;;;;;15.60;35.60;;;;;;5018332;28;44306;-77
2022/03/10 09:48:23;;;;;;;;;;;15.60;35.70;;;;;;5020378;28;43046;-77
2022/03/10 09:50:49;;;;;;;;;;;15.60;35.60;;;;;;5016660;28;42977;-78
2022/03/10 09:53:15;;;;;;;;;;;15.60;35.60;;;;;;5017281;28;42980;-79
2022/03/10 09:55:41;;;;;;;;;;;15.60;35.50;;;;;;5016029;28;44424;-79
2022/03/10 09:58:07;;;;;;;;;;;15.60;35.40;;;;;;5023144;28;42975;-78
2022/03/10 10:00:33;;;;;;;;;;;15.60;35.50;;;;;;5026801;28;43962;-77
2022/03/10 10:02:58;;;;;;;;;;;15.60;35.60;;;;;;5027040;28;43039;-78
2022/03/10 10:05:24;;;;;;;;;;;15.60;35.50;;;;;;5026971;28;43626;-77
2022/03/10 10:07:59;;;;;;;;;;;15.60;35.50;;;;;;5024398;28;42936;-80
2022/03/10 10:10:28;;;;;;;;;;;15.60;35.50;;;;;;5026825;28;42911;-74
2022/03/10 10:12:54;;;;;;;;;;;15.60;35.40;;;;;;5024861;28;42991;-78
2022/03/10 10:15:20;;;;;;;;;;;15.70;35.50;;;;;;5020898;28;42858;-80
2022/03/10 10:17:54;;;;;;;;;;;15.70;35.40;;;;;;5018909;28;42793;-78
2022/03/10 10:20:19;;;;;;;;;;;15.60;35.40;;;;;;5026480;28;42912;-78
2022/03/10 10:22:45;;;;;;;;;;;15.70;35.40;;;;;;5027176;28;42953;-78
2022/03/10 10:25:10;;;;;;;;;;;15.60;34.80;;;;;;5025926;28;43091;-78
2022/03/10 10:27:37;;;;;;;;;;;15.70;35.40;;;;;;5015450;28;42765;-78
2022/03/10 10:30:04;;;;;;;;;;;15.70;35.20;;;;;;5015975;28;43548;-77
2022/03/10 10:32:33;;;;;;;;;;;15.70;35.30;;;;;;5015012;28;43017;-77
2022/03/10 10:34:59;;;;;;;;;;;15.70;35.40;;;;;;5015599;28;43267;-77
2022/03/10 10:37:25;;;;;;;;;;;15.70;35.10;;;;;;5016291;28;43084;-77
2022/03/10 10:39:51;;;;;;;;;;;15.70;35.90;;;;;;5015202;28;43433;-80
2022/03/10 10:42:17;;;;;;;;;;;15.70;35.40;;;;;;5021102;28;42943;-80
2022/03/10 10:44:42;;;;;;;;;;;15.70;35.40;;;;;;5018188;28;42935;-77
2022/03/10 10:47:08;;;;;;;;;;;15.70;35.30;;;;;;5015748;28;42995;-77
2022/03/10 10:49:35;;;;;;;;;;;15.70;35.40;;;;;;5023968;28;43014;-77
2022/03/10 10:52:01;;;;;;;;;;;15.70;35.50;;;;;;5026907;28;42951;-74
2022/03/10 10:54:27;;;;;;;;;;;15.70;35.60;;;;;;5017480;28;42982;-78
2022/03/10 10:56:57;;;;;;;;;;;15.70;35.20;;;;;;5016025;28;43035;-76
2022/03/10 10:59:39;;;;;;;;;;;15.70;35.30;;;;;;5017125;28;43404;-76
2022/03/10 11:02:20;;;;;;;;;;;15.70;35.50;;;;;;5011399;28;43004;-77
2022/03/10 11:04:46;;;;;;;;;;;15.80;35.60;;;;;;5019075;28;43954;-77
2022/03/10 11:07:13;;;;;;;;;;;15.80;36.10;;;;;;5014492;28;43060;-76
2022/03/10 11:09:39;;;;;;;;;;;15.70;37.20;;;;;;5016486;28;43101;-77
2022/03/10 11:12:05;;;;;;;;;;;15.80;37.30;;;;;;5015041;28;42989;-75
2022/03/10 11:14:31;;;;;;;;;;;15.80;37.10;;;;;;5023431;28;43171;-77
2022/03/10 11:16:58;;;;;;;;;;;15.80;36.80;;;;;;5014396;28;43036;-77
2022/03/10 11:19:25;;;;;;;;;;;15.70;36.40;;;;;;5016573;28;43502;-76
2022/03/10 11:21:50;;;;;;;;;;;15.70;36.00;;;;;;5016498;28;42935;-76
2022/03/10 11:24:26;;;;;;;;;;;15.80;35.80;;;;;;5013605;28;43137;-76
2022/03/10 11:27:00;;;;;;;;;;;15.80;35.50;;;;;;5013170;28;43046;-74
2022/03/10 11:29:26;;;;;;;;;;;15.80;34.90;;;;;;5015214;28;43594;-78
2022/03/10 11:31:53;;;;;;;;;;;15.80;34.70;;;;;;5017090;28;42928;-75
2022/03/10 11:34:37;;;;;;;;;;;15.80;34.50;;;;;;5015390;28;43787;-76
2022/03/10 11:37:12;;;;;;;;;;;15.80;33.40;;;;;;5012915;28;43639;-76
2022/03/10 11:39:54;;;;;;;;;;;15.60;32.70;;;;;;5014300;28;43094;-77
2022/03/10 11:42:26;;;;;;;;;;;16.00;32.90;;;;;;5020556;28;43002;-75
2022/03/10 11:45:04;;;;;;;;;;;16.00;32.10;;;;;;5023534;28;42822;-76
2022/03/10 11:47:30;;;;;;;;;;;15.80;31.90;;;;;;5014588;28;43802;-79
2022/03/10 11:49:56;;;;;;;;;;;15.80;32.20;;;;;;5015127;28;43714;-79
2022/03/10 11:52:22;;;;;;;;;;;15.80;33.30;;;;;;5016753;28;43035;-79
2022/03/10 11:55:07;;;;;;;;;;;15.80;33.00;;;;;;5015860;28;43780;-80
2022/03/10 11:57:43;;;;;;;;;;;15.90;33.20;;;;;;5018209;28;43063;-78
2022/03/10 12:00:09;;;;;;;;;;;15.80;33.20;;;;;;5023111;28;43045;-79
2022/03/10 12:02:39;;;;;;;;;;;15.80;33.20;;;;;;5017862;28;42996;-78
2022/03/10 12:05:06;;;;;;;;;;;15.90;33.10;;;;;;5014689;28;43343;-78
2022/03/10 12:07:31;;;;;;;;;;;15.90;33.30;;;;;;5014081;28;43095;-79
2022/03/10 12:10:15;;;;;;;;;;;15.90;33.50;;;;;;5014209;28;43570;-79
2022/03/10 12:12:42;;;;;;;;;;;15.90;33.30;;;;;;5014172;28;42841;-79
2022/03/10 12:15:29;;;;;;;;;;;15.90;33.10;;;;;;5014598;28;43005;-79
2022/03/10 12:17:55;;;;;;;;;;;15.90;33.60;;;;;;5016072;28;42944;-74
2022/03/10 12:20:56;;;;;;;;;;;15.90;33.60;;;;;;5009955;28;44521;-78
2022/03/10 12:23:26;;;;;;;;;;;15.90;33.50;;;;;;5003257;28;42803;-78
2022/03/10 12:25:53;;;;;;;;;;;15.90;33.00;;;;;;5013260;28;43630;-79
2022/03/10 12:28:41;;;;;;;;;;;15.90;33.00;;;;;;5013920;28;43025;-80
2022/03/10 12:31:14;;;;;;;;;;;15.90;33.10;;;;;;5016391;28;42959;-81
2022/03/10 12:33:44;;;;;;;;;;;15.90;33.10;;;;;;5018638;28;42971;-80
2022/03/10 12:36:10;;;;;;;;;;;15.90;33.30;;;;;;5013941;28;43344;-82
2022/03/10 12:38:37;;;;;;;;;;;15.90;33.00;;;;;;5015161;28;42953;-79
2022/03/10 12:41:03;;;;;;;;;;;16.00;33.50;;;;;;5012815;28;43437;-79
2022/03/10 12:43:29;;;;;;;;;;;16.00;33.40;;;;;;5015539;28;42960;-79
2022/03/10 12:45:55;;;;;;;;;;;15.90;33.60;;;;;;5013508;28;43056;-79
2022/03/10 12:48:39;;;;;;;;;;;15.90;33.70;;;;;;5010862;28;43032;-79
2022/03/10 12:51:19;;;;;;;;;;;16.00;33.50;;;;;;5014367;28;43971;-79
2022/03/10 12:53:44;;;;;;;;;;;16.00;33.80;;;;;;5012234;28;43997;-79
2022/03/10 12:56:10;;;;;;;;;;;15.90;33.30;;;;;;5014574;28;43443;-78
2022/03/10 12:58:35;;;;;;;;;;;16.00;33.30;;;;;;5013577;28;42882;-76
2022/03/10 13:01:08;;;;;;;;;;;15.90;33.00;;;;;;5012270;28;43001;-80
2022/03/10 13:03:44;;;;;;;;;;;16.00;33.70;;;;;;5010477;28;42984;-79
2022/03/10 13:06:11;;;;;;;;;;;16.00;33.60;;;;;;5012532;28;44061;-79
2022/03/10 13:08:40;;;;;;;;;;;16.00;33.80;;;;;;5012753;28;43177;-79
2022/03/10 13:11:07;;;;;;;;;;;15.90;33.20;;;;;;5010587;28;43206;-80
2022/03/10 13:13:32;;;;;;;;;;;16.00;33.40;;;;;;5012459;28;42988;-80
2022/03/10 13:16:01;;;;;;;;;;;16.00;31.20;;;;;;5015616;28;43682;-78
2022/03/10 13:18:27;;;;;;;;;;;16.00;32.30;;;;;;5018561;28;43101;-79
2022/03/10 13:20:56;;;;;;;;;;;16.00;33.30;;;;;;5017138;28;42955;-79
2022/03/10 13:23:24;;;;;;;;;;;16.00;32.90;;;;;;5013826;28;42982;-78
2022/03/10 13:25:50;;;;;;;;;;;16.00;32.70;;;;;;5017671;28;42987;-78
2022/03/10 13:28:16;;;;;;;;;;;16.10;32.70;;;;;;5019272;28;43170;-79
2022/03/10 13:30:44;;;;;;;;;;;16.00;32.20;;;;;;5012826;28;43686;-79
2022/03/10 13:33:11;;;;;;;;;;;16.10;32.70;;;;;;5017569;28;42893;-77
2022/03/10 13:35:37;;;;;;;;;;;16.10;33.10;;;;;;5016571;28;42948;-78
2022/03/10 13:38:05;;;;;;;;;;;16.10;33.10;;;;;;5016994;28;43493;-79
2022/03/10 13:40:31;;;;;;;;;;;16.00;33.30;;;;;;5012809;28;43394;-80
2022/03/10 13:42:59;;;;;;;;;;;16.10;33.50;;;;;;5016999;28;42998;-80
2022/03/10 13:45:25;;;;;;;;;;;17.30;34.20;;;;;;5013216;28;43440;-78
2022/03/10 13:47:50;;;;;;;;;;;16.10;33.30;;;;;;5017806;28;43077;-77
2022/03/10 13:50:21;;;;;;;;;;;16.10;33.60;;;;;;5016936;28;43639;-78
2022/03/10 13:52:51;;;;;;;;;;;16.10;33.20;;;;;;5015204;28;42952;-78
2022/03/10 13:55:17;;;;;;;;;;;16.10;33.70;;;;;;5013486;28;42883;-77
2022/03/10 13:57:43;;;;;;;;;;;16.10;34.00;;;;;;5013125;28;42912;-77
2022/03/10 14:00:09;;;;;;;;;;;16.20;33.40;;;;;;5012444;28;44404;-77
2022/03/10 14:02:34;;;;;;;;;;;16.20;34.10;;;;;;5015040;28;43133;-77
2022/03/10 14:05:10;;;;;;;;;;;16.10;33.50;;;;;;5014683;28;44039;-77
2022/03/10 14:07:35;;;;;;;;;;;16.20;33.60;;;;;;5017130;28;43022;-77
2022/03/10 14:10:02;;;;;;;;;;;16.20;34.30;;;;;;5017564;28;43099;-78
2022/03/10 14:12:30;;;;;;;;;;;18.20;35.20;;;;;;5019062;28;43035;-77
2022/03/10 14:14:55;;;;;;;;;;;16.20;34.10;;;;;;5018301;28;43062;-76
2022/03/10 14:17:38;;;;;;;;;;;16.20;34.30;;;;;;5017004;28;43074;-77
2022/03/10 14:20:04;;;;;;;;;;;16.20;34.10;;;;;;5015971;28;43360;-78